Time;durP1;ratioP1;P1;durP2;ratioP2;P2;SDS_P1;SDS_P2;PMS_P1;PMS_P2;Temp;Humidity;BMP_temperature;BMP_pressure;BME280_temperature;BME280_humidity;BME280_pressure;Samples;Min_cycle;Max_cycle;Signal;HPM_P1;HPM_P2
2024/01/14 00:00:09;;;;;;;18.77;13.40;;;;;;;;;;476491;28;1125;-73
2024/01/14 00:00:32;;;;;;;19.90;13.85;;;;;;;;;;478346;28;1029;-73
2024/01/14 00:00:48;;;;;;;19.60;13.70;;;;;;;;;;479754;28;1103;-74
2024/01/14 00:01:04;;;;;;;18.17;13.50;;;;;;;;;;480363;28;1300;-74
2024/01/14 00:01:19;;;;;;;17.80;13.27;;;;;;;;;;480465;28;954;-73
2024/01/14 00:01:34;;;;;;;18.33;13.13;;;;;;;;;;479220;28;1318;-73
2024/01/14 00:01:54;;;;;;;19.20;13.47;;;;;;;;;;477619;28;1272;-73
2024/01/14 00:02:10;;;;;;;19.10;13.50;;;;;;;;;;479605;28;1055;-73
2024/01/14 00:02:25;;;;;;;19.00;13.57;;;;;;;;;;479160;28;1134;-73
2024/01/14 00:02:41;;;;;;;19.53;14.10;;;;;;;;;;479846;28;1281;-73
2024/01/14 00:02:56;;;;;;;19.13;14.13;;;;;;;;;;481383;28;1018;-73
2024/01/14 00:03:11;;;;;;;19.13;14.10;;;;;;;;;;480759;28;1154;-73
2024/01/14 00:03:27;;;;;;;19.33;14.03;;;;;;;;;;480929;28;1210;-73
2024/01/14 00:03:42;;;;;;;18.55;13.48;;;;;;;;;;480789;28;1348;-73
2024/01/14 00:03:58;;;;;;;17.43;13.03;;;;;;;;;;478950;28;1050;-74
2024/01/14 00:04:13;;;;;;;17.42;13.10;;;;;;;;;;480169;28;1370;-74
2024/01/14 00:04:29;;;;;;;17.87;13.20;;;;;;;;;;479422;28;1004;-73
2024/01/14 00:04:45;;;;;;;18.30;13.30;;;;;;;;;;476907;28;1090;-73
2024/01/14 00:05:00;;;;;;;18.08;13.75;;;;;;;;;;477047;28;1107;-74
2024/01/14 00:05:15;;;;;;;18.03;13.77;;;;;;;;;;477011;28;1546;-73
2024/01/14 00:05:31;;;;;;;18.27;13.80;;;;;;;;;;478511;28;1014;-72
2024/01/14 00:05:46;;;;;;;19.20;14.13;;;;;;;;;;479496;28;1120;-74
2024/01/14 00:06:02;;;;;;;19.52;13.85;;;;;;;;;;478505;28;995;-74
2024/01/14 00:06:17;;;;;;;19.73;13.53;;;;;;;;;;479073;28;1999;-73
2024/01/14 00:06:33;;;;;;;19.27;13.40;;;;;;;;;;480388;28;1360;-73
2024/01/14 00:06:50;;;;;;;17.73;12.97;;;;;;;;;;478764;28;1447;-73
2024/01/14 00:07:05;;;;;;;17.95;12.60;;;;;;;;;;477049;28;1197;-73
2024/01/14 00:07:21;;;;;;;18.15;12.70;;;;;;;;;;480508;28;1292;-73
2024/01/14 00:07:36;;;;;;;17.33;12.73;;;;;;;;;;479916;28;934;-73
2024/01/14 00:07:52;;;;;;;17.93;12.90;;;;;;;;;;478424;28;1323;-73
2024/01/14 00:08:08;;;;;;;19.23;13.25;;;;;;;;;;476255;29;1439;-73
2024/01/14 00:08:24;;;;;;;19.40;13.63;;;;;;;;;;477926;28;1034;-73
2024/01/14 00:08:39;;;;;;;19.20;13.83;;;;;;;;;;478243;28;926;-74
2024/01/14 00:08:55;;;;;;;19.13;13.77;;;;;;;;;;478386;28;1744;-73
2024/01/14 00:09:10;;;;;;;19.47;13.53;;;;;;;;;;477131;28;1242;-73
2024/01/14 00:09:26;;;;;;;18.48;13.13;;;;;;;;;;478415;29;1335;-73
2024/01/14 00:09:41;;;;;;;19.37;13.23;;;;;;;;;;476622;29;1145;-73
2024/01/14 00:09:58;;;;;;;19.55;13.15;;;;;;;;;;476206;28;1002;-73
2024/01/14 00:10:14;;;;;;;16.48;12.63;;;;;;;;;;478282;28;950;-74
2024/01/14 00:10:29;;;;;;;15.97;12.47;;;;;;;;;;477535;28;1230;-73
2024/01/14 00:10:45;;;;;;;16.60;12.90;;;;;;;;;;477351;28;971;-73
2024/01/14 00:11:00;;;;;;;17.03;13.10;;;;;;;;;;476137;28;1141;-74
2024/01/14 00:11:15;;;;;;;17.85;13.13;;;;;;;;;;478754;28;1334;-73
2024/01/14 00:11:31;;;;;;;18.23;13.03;;;;;;;;;;478582;28;1141;-73
2024/01/14 00:11:46;;;;;;;17.67;12.82;;;;;;;;;;479022;28;1083;-73
2024/01/14 00:12:04;;;;;;;16.83;12.70;;;;;;;;;;477552;28;1195;-73
2024/01/14 00:12:19;;;;;;;17.25;12.88;;;;;;;;;;478250;28;1121;-74
2024/01/14 00:12:35;;;;;;;16.80;12.80;;;;;;;;;;478604;28;1165;-73
2024/01/14 00:12:50;;;;;;;16.75;12.73;;;;;;;;;;477128;28;1291;-74
2024/01/14 00:13:06;;;;;;;17.17;12.80;;;;;;;;;;476241;28;936;-73
2024/01/14 00:13:21;;;;;;;17.20;12.77;;;;;;;;;;477364;28;1422;-73
2024/01/14 00:13:37;;;;;;;17.97;13.43;;;;;;;;;;477185;28;1214;-73
2024/01/14 00:13:52;;;;;;;18.73;13.37;;;;;;;;;;475382;28;1260;-73
2024/01/14 00:14:08;;;;;;;18.10;12.75;;;;;;;;;;475368;29;1024;-73
2024/01/14 00:14:23;;;;;;;19.50;13.30;;;;;;;;;;473750;29;1304;-73
2024/01/14 00:14:41;;;;;;;18.77;13.20;;;;;;;;;;473935;29;1253;-73
2024/01/14 00:14:57;;;;;;;16.58;12.75;;;;;;;;;;475010;29;1671;-73
2024/01/14 00:15:12;;;;;;;16.77;12.68;;;;;;;;;;475590;28;1021;-74
2024/01/14 00:15:28;;;;;;;18.10;12.77;;;;;;;;;;475457;29;1316;-73
2024/01/14 00:15:43;;;;;;;17.55;12.68;;;;;;;;;;475019;29;1364;-73
2024/01/14 00:15:59;;;;;;;17.53;12.80;;;;;;;;;;476268;29;1368;-73
2024/01/14 00:16:16;;;;;;;17.25;12.40;;;;;;;;;;477005;28;928;-73
2024/01/14 00:16:34;;;;;;;16.55;12.30;;;;;;;;;;479581;28;1271;-73
2024/01/14 00:16:49;;;;;;;17.65;13.00;;;;;;;;;;479978;28;1301;-73
2024/01/14 00:17:05;;;;;;;18.23;13.07;;;;;;;;;;479028;28;975;-73
2024/01/14 00:17:21;;;;;;;17.37;12.50;;;;;;;;;;479906;28;962;-73
2024/01/14 00:17:36;;;;;;;16.63;12.48;;;;;;;;;;480060;28;1058;-72
2024/01/14 00:17:52;;;;;;;16.87;12.60;;;;;;;;;;481032;28;1078;-73
2024/01/14 00:18:08;;;;;;;17.15;12.65;;;;;;;;;;482683;28;1363;-74
2024/01/14 00:18:23;;;;;;;17.00;12.23;;;;;;;;;;483180;28;950;-74
2024/01/14 00:18:39;;;;;;;16.83;11.73;;;;;;;;;;481971;28;1298;-73
2024/01/14 00:18:54;;;;;;;16.80;12.00;;;;;;;;;;479877;28;999;-73
2024/01/14 00:19:10;;;;;;;17.33;12.68;;;;;;;;;;479914;28;978;-73
2024/01/14 00:19:25;;;;;;;16.83;12.63;;;;;;;;;;480858;28;1302;-74
2024/01/14 00:19:41;;;;;;;16.50;12.63;;;;;;;;;;480666;28;1111;-74
2024/01/14 00:19:56;;;;;;;16.87;12.80;;;;;;;;;;479090;28;1403;-73
2024/01/14 00:20:12;;;;;;;17.23;12.52;;;;;;;;;;477924;28;1230;-74
2024/01/14 00:20:27;;;;;;;17.17;12.40;;;;;;;;;;477307;28;1313;-73
2024/01/14 00:20:43;;;;;;;17.23;12.55;;;;;;;;;;477654;28;1329;-73
2024/01/14 00:20:58;;;;;;;17.37;12.60;;;;;;;;;;477271;28;1075;-73
2024/01/14 00:21:14;;;;;;;16.42;12.25;;;;;;;;;;477913;28;943;-74
2024/01/14 00:21:29;;;;;;;16.47;12.13;;;;;;;;;;478083;28;973;-74
2024/01/14 00:21:45;;;;;;;17.70;12.30;;;;;;;;;;477744;28;1114;-74
2024/01/14 00:22:00;;;;;;;17.10;12.20;;;;;;;;;;477651;28;1248;-73
2024/01/14 00:22:16;;;;;;;16.52;12.07;;;;;;;;;;479184;28;1119;-74
2024/01/14 00:22:31;;;;;;;17.20;12.23;;;;;;;;;;481235;28;921;-73
2024/01/14 00:22:47;;;;;;;16.77;12.30;;;;;;;;;;482239;28;1103;-73
2024/01/14 00:23:02;;;;;;;16.63;12.50;;;;;;;;;;482732;28;1006;-73
2024/01/14 00:23:18;;;;;;;17.55;12.65;;;;;;;;;;482501;28;1153;-74
2024/01/14 00:23:34;;;;;;;18.08;12.80;;;;;;;;;;482232;28;1106;-73
2024/01/14 00:23:49;;;;;;;17.47;12.43;;;;;;;;;;481510;28;1109;-73
2024/01/14 00:24:05;;;;;;;16.10;12.23;;;;;;;;;;480267;28;1392;-73
2024/01/14 00:24:20;;;;;;;15.80;12.03;;;;;;;;;;480780;28;1054;-73
2024/01/14 00:24:36;;;;;;;16.20;11.97;;;;;;;;;;479668;28;1227;-73
2024/01/14 00:24:51;;;;;;;17.40;12.50;;;;;;;;;;480635;28;1351;-73
2024/01/14 00:25:07;;;;;;;16.73;12.27;;;;;;;;;;478948;28;1493;-73
2024/01/14 00:25:22;;;;;;;15.80;12.07;;;;;;;;;;479902;28;1274;-73
2024/01/14 00:25:38;;;;;;;16.13;12.13;;;;;;;;;;479539;28;1015;-73
2024/01/14 00:25:53;;;;;;;16.30;12.30;;;;;;;;;;479777;28;963;-74
2024/01/14 00:26:09;;;;;;;16.60;12.40;;;;;;;;;;480064;28;1215;-73
2024/01/14 00:26:27;;;;;;;16.40;12.20;;;;;;;;;;480716;28;1957;-73
2024/01/14 00:26:43;;;;;;;17.33;12.38;;;;;;;;;;478448;28;1207;-73
2024/01/14 00:26:58;;;;;;;16.65;12.25;;;;;;;;;;478550;28;1093;-73
2024/01/14 00:27:13;;;;;;;14.83;11.77;;;;;;;;;;477199;28;1378;-73
2024/01/14 00:27:29;;;;;;;14.93;12.00;;;;;;;;;;477641;28;1250;-73
2024/01/14 00:27:44;;;;;;;15.55;12.38;;;;;;;;;;475760;29;1075;-73
2024/01/14 00:28:01;;;;;;;16.57;12.70;;;;;;;;;;476995;28;1227;-73
2024/01/14 00:28:17;;;;;;;17.02;12.60;;;;;;;;;;477255;29;1420;-73
2024/01/14 00:28:32;;;;;;;16.90;12.07;;;;;;;;;;477014;29;988;-73
2024/01/14 00:28:47;;;;;;;17.40;12.30;;;;;;;;;;476367;29;1411;-74
2024/01/14 00:29:03;;;;;;;17.60;12.60;;;;;;;;;;476098;29;1079;-73
2024/01/14 00:29:18;;;;;;;18.13;12.75;;;;;;;;;;475663;29;909;-73
2024/01/14 00:29:36;;;;;;;17.30;12.30;;;;;;;;;;475758;29;1068;-73
2024/01/14 00:29:54;;;;;;;16.52;12.15;;;;;;;;;;476650;28;1577;-74
2024/01/14 00:30:11;;;;;;;16.73;12.40;;;;;;;;;;478996;28;1381;-74
2024/01/14 00:30:26;;;;;;;17.35;12.55;;;;;;;;;;476703;29;1182;-73
2024/01/14 00:30:41;;;;;;;16.97;12.00;;;;;;;;;;478580;28;999;-73
2024/01/14 00:30:57;;;;;;;15.60;11.30;;;;;;;;;;479277;28;1284;-74
2024/01/14 00:31:12;;;;;;;16.10;11.80;;;;;;;;;;479195;28;1122;-73
2024/01/14 00:31:28;;;;;;;15.75;12.07;;;;;;;;;;480186;28;933;-73
2024/01/14 00:31:43;;;;;;;15.13;12.00;;;;;;;;;;479024;28;1082;-74
2024/01/14 00:31:59;;;;;;;16.42;12.25;;;;;;;;;;478249;28;1325;-74
2024/01/14 00:32:14;;;;;;;16.63;12.40;;;;;;;;;;478510;28;1251;-73
2024/01/14 00:32:30;;;;;;;17.37;12.67;;;;;;;;;;480411;28;964;-73
2024/01/14 00:32:45;;;;;;;16.92;12.48;;;;;;;;;;480950;28;1232;-73
2024/01/14 00:33:00;;;;;;;15.73;11.90;;;;;;;;;;478794;28;1245;-73
2024/01/14 00:33:16;;;;;;;16.60;11.90;;;;;;;;;;478163;28;1435;-73
2024/01/14 00:33:31;;;;;;;17.20;11.87;;;;;;;;;;476179;29;1294;-74
2024/01/14 00:33:49;;;;;;;16.52;11.75;;;;;;;;;;476738;29;936;-74
2024/01/14 00:34:05;;;;;;;16.58;11.85;;;;;;;;;;477238;29;1114;-73
2024/01/14 00:34:20;;;;;;;16.17;11.73;;;;;;;;;;475466;29;1229;-73
2024/01/14 00:34:35;;;;;;;14.77;11.50;;;;;;;;;;474468;29;1265;-73
2024/01/14 00:34:51;;;;;;;16.02;11.77;;;;;;;;;;476062;29;1208;-74
2024/01/14 00:35:07;;;;;;;17.60;12.10;;;;;;;;;;476728;29;1300;-74
2024/01/14 00:35:22;;;;;;;17.27;12.00;;;;;;;;;;476970;29;1216;-74
2024/01/14 00:35:37;;;;;;;16.33;11.70;;;;;;;;;;473749;29;1029;-74
2024/01/14 00:35:53;;;;;;;16.40;11.90;;;;;;;;;;471541;29;1084;-73
2024/01/14 00:36:08;;;;;;;15.67;11.60;;;;;;;;;;474868;29;1065;-73
2024/01/14 00:36:24;;;;;;;15.23;11.27;;;;;;;;;;476086;29;1284;-73
2024/01/14 00:36:40;;;;;;;14.83;11.13;;;;;;;;;;476540;29;896;-74
2024/01/14 00:36:55;;;;;;;15.40;11.30;;;;;;;;;;475578;29;1065;-73
2024/01/14 00:37:10;;;;;;;15.32;11.32;;;;;;;;;;475816;29;1276;-73
2024/01/14 00:37:26;;;;;;;15.03;11.30;;;;;;;;;;478597;28;1103;-73
2024/01/14 00:37:41;;;;;;;15.40;11.47;;;;;;;;;;480389;28;1052;-74
2024/01/14 00:37:59;;;;;;;16.27;11.73;;;;;;;;;;480236;28;1213;-74
2024/01/14 00:38:15;;;;;;;16.80;12.02;;;;;;;;;;481224;28;1093;-73
2024/01/14 00:38:30;;;;;;;16.53;11.80;;;;;;;;;;481392;28;912;-73
2024/01/14 00:38:46;;;;;;;16.00;11.75;;;;;;;;;;481860;28;1240;-73
2024/01/14 00:39:02;;;;;;;15.95;12.02;;;;;;;;;;481336;28;926;-73
2024/01/14 00:39:18;;;;;;;16.42;12.18;;;;;;;;;;482775;28;1455;-74
2024/01/14 00:39:39;;;;;;;16.10;11.90;;;;;;;;;;482103;28;925;-74
2024/01/14 00:39:55;;;;;;;16.38;11.45;;;;;;;;;;483092;28;1274;-73
2024/01/14 00:40:10;;;;;;;15.77;11.70;;;;;;;;;;483374;28;1190;-73
2024/01/14 00:40:26;;;;;;;16.30;11.93;;;;;;;;;;483118;28;1043;-74
2024/01/14 00:40:41;;;;;;;16.42;11.63;;;;;;;;;;482899;28;1077;-73
2024/01/14 00:40:57;;;;;;;15.63;11.60;;;;;;;;;;481296;28;950;-73
2024/01/14 00:41:12;;;;;;;15.20;11.90;;;;;;;;;;481663;28;1209;-73
2024/01/14 00:41:28;;;;;;;15.23;11.87;;;;;;;;;;483672;28;1172;-73
2024/01/14 00:41:43;;;;;;;15.80;12.05;;;;;;;;;;483048;28;1393;-73
2024/01/14 00:41:59;;;;;;;15.40;12.10;;;;;;;;;;482941;28;936;-74
2024/01/14 00:42:14;;;;;;;15.20;11.82;;;;;;;;;;482221;28;1090;-73
2024/01/14 00:42:29;;;;;;;16.37;11.57;;;;;;;;;;480276;28;1163;-73
2024/01/14 00:42:45;;;;;;;16.33;11.27;;;;;;;;;;480604;28;923;-74
2024/01/14 00:43:00;;;;;;;15.95;11.50;;;;;;;;;;479634;28;973;-74
2024/01/14 00:43:15;;;;;;;17.33;12.10;;;;;;;;;;480618;28;1055;-73
2024/01/14 00:43:31;;;;;;;19.40;12.43;;;;;;;;;;482937;28;934;-74
2024/01/14 00:43:46;;;;;;;18.10;12.27;;;;;;;;;;479935;28;1414;-73
2024/01/14 00:44:02;;;;;;;16.20;12.07;;;;;;;;;;481465;28;1295;-72
2024/01/14 00:44:17;;;;;;;15.98;11.85;;;;;;;;;;483393;28;1102;-74
2024/01/14 00:44:32;;;;;;;15.87;11.67;;;;;;;;;;482652;28;1198;-72
2024/01/14 00:44:48;;;;;;;15.35;11.77;;;;;;;;;;482562;28;1358;-73
2024/01/14 00:45:04;;;;;;;14.90;11.80;;;;;;;;;;481599;28;1118;-73
2024/01/14 00:45:19;;;;;;;15.43;11.65;;;;;;;;;;482414;28;1237;-73
2024/01/14 00:45:34;;;;;;;16.37;11.80;;;;;;;;;;482493;28;1354;-74
2024/01/14 00:45:50;;;;;;;16.75;11.73;;;;;;;;;;480863;28;1193;-73
2024/01/14 00:46:05;;;;;;;16.07;11.47;;;;;;;;;;481464;28;1036;-73
2024/01/14 00:46:21;;;;;;;15.75;11.63;;;;;;;;;;481537;28;1958;-73
2024/01/14 00:46:37;;;;;;;15.40;11.63;;;;;;;;;;480512;28;1197;-74
2024/01/14 00:46:53;;;;;;;15.75;11.43;;;;;;;;;;478828;28;970;-73
2024/01/14 00:47:08;;;;;;;16.53;11.93;;;;;;;;;;478765;28;905;-73
2024/01/14 00:47:24;;;;;;;15.80;12.05;;;;;;;;;;479165;28;1113;-73
2024/01/14 00:47:39;;;;;;;14.93;11.40;;;;;;;;;;479655;28;888;-73
2024/01/14 00:47:55;;;;;;;15.30;11.20;;;;;;;;;;479345;28;1115;-72
2024/01/14 00:48:10;;;;;;;15.23;11.60;;;;;;;;;;481890;28;971;-73
2024/01/14 00:48:25;;;;;;;15.10;11.52;;;;;;;;;;482970;28;1070;-73
2024/01/14 00:48:41;;;;;;;15.57;11.60;;;;;;;;;;483401;28;909;-73
2024/01/14 00:48:56;;;;;;;16.33;11.93;;;;;;;;;;480631;28;1110;-73
2024/01/14 00:49:12;;;;;;;17.15;11.85;;;;;;;;;;480667;28;1282;-73
2024/01/14 00:49:27;;;;;;;16.90;12.00;;;;;;;;;;480905;28;1201;-74
2024/01/14 00:49:43;;;;;;;15.82;11.85;;;;;;;;;;478519;28;1091;-73
2024/01/14 00:49:58;;;;;;;16.87;11.83;;;;;;;;;;480236;28;1300;-73
2024/01/14 00:50:14;;;;;;;17.58;12.20;;;;;;;;;;479580;28;1244;-74
2024/01/14 00:50:30;;;;;;;15.80;12.03;;;;;;;;;;479951;28;1182;-73
2024/01/14 00:50:45;;;;;;;16.13;12.20;;;;;;;;;;480122;28;1106;-74
2024/01/14 00:51:01;;;;;;;16.70;12.20;;;;;;;;;;480135;28;908;-74
2024/01/14 00:51:16;;;;;;;16.43;12.07;;;;;;;;;;480513;28;951;-73
2024/01/14 00:51:31;;;;;;;16.30;11.93;;;;;;;;;;482017;28;1269;-73
2024/01/14 00:51:47;;;;;;;16.33;11.90;;;;;;;;;;482677;28;941;-74
2024/01/14 00:52:02;;;;;;;16.33;12.13;;;;;;;;;;482782;28;1402;-73
2024/01/14 00:52:18;;;;;;;15.88;12.05;;;;;;;;;;482059;28;1219;-74
2024/01/14 00:52:33;;;;;;;15.70;12.00;;;;;;;;;;480921;28;1209;-74
2024/01/14 00:52:49;;;;;;;17.38;12.38;;;;;;;;;;479239;28;1171;-73
2024/01/14 00:53:05;;;;;;;17.17;12.20;;;;;;;;;;479748;28;1010;-74
2024/01/14 00:53:20;;;;;;;15.73;11.67;;;;;;;;;;481141;28;1213;-74
2024/01/14 00:53:36;;;;;;;16.50;11.70;;;;;;;;;;480032;28;1321;-73
2024/01/14 00:53:51;;;;;;;16.50;11.70;;;;;;;;;;478929;28;1126;-73
2024/01/14 00:54:06;;;;;;;15.82;11.77;;;;;;;;;;477472;28;1016;-74
2024/01/14 00:54:22;;;;;;;16.43;12.30;;;;;;;;;;478184;28;1403;-73
2024/01/14 00:54:37;;;;;;;16.35;12.50;;;;;;;;;;477123;29;946;-74
2024/01/14 00:54:53;;;;;;;15.77;12.07;;;;;;;;;;477196;29;947;-74
2024/01/14 00:55:09;;;;;;;16.23;11.93;;;;;;;;;;475225;29;1375;-73
2024/01/14 00:55:24;;;;;;;16.70;12.00;;;;;;;;;;477828;29;1092;-74
2024/01/14 00:55:40;;;;;;;16.92;12.18;;;;;;;;;;478785;28;965;-75
2024/01/14 00:55:55;;;;;;;16.75;12.25;;;;;;;;;;479341;28;1129;-74
2024/01/14 00:56:12;;;;;;;16.57;12.03;;;;;;;;;;478850;28;1082;-73
2024/01/14 00:56:27;;;;;;;16.70;12.00;;;;;;;;;;481812;28;1412;-74
2024/01/14 00:56:43;;;;;;;17.27;12.43;;;;;;;;;;478737;28;1189;-73
2024/01/14 00:56:59;;;;;;;17.13;11.95;;;;;;;;;;480051;28;1036;-72
2024/01/14 00:57:15;;;;;;;17.70;12.48;;;;;;;;;;481801;28;1289;-73
2024/01/14 00:57:30;;;;;;;17.70;12.85;;;;;;;;;;483697;28;1307;-74
2024/01/14 00:57:47;;;;;;;16.80;12.30;;;;;;;;;;482014;28;892;-73
2024/01/14 00:58:02;;;;;;;17.95;12.48;;;;;;;;;;480374;28;1521;-73
2024/01/14 00:58:17;;;;;;;18.00;12.53;;;;;;;;;;479770;28;1253;-73
2024/01/14 00:58:35;;;;;;;16.75;12.38;;;;;;;;;;480572;28;1166;-73
2024/01/14 00:58:51;;;;;;;16.38;12.13;;;;;;;;;;480360;28;935;-72
2024/01/14 00:59:06;;;;;;;16.77;12.18;;;;;;;;;;479432;28;1039;-73
2024/01/14 00:59:22;;;;;;;16.83;12.35;;;;;;;;;;478940;28;1237;-73
2024/01/14 00:59:37;;;;;;;17.50;12.50;;;;;;;;;;479383;28;1157;-73
2024/01/14 00:59:52;;;;;;;16.80;12.33;;;;;;;;;;477972;28;1292;-73
2024/01/14 01:00:09;;;;;;;16.40;12.35;;;;;;;;;;479319;28;979;-73
2024/01/14 01:00:24;;;;;;;16.48;12.43;;;;;;;;;;481665;28;1275;-73
2024/01/14 01:00:40;;;;;;;16.65;12.60;;;;;;;;;;480573;28;1241;-74
2024/01/14 01:00:55;;;;;;;17.37;12.53;;;;;;;;;;480950;28;1490;-74
2024/01/14 01:01:11;;;;;;;18.17;12.60;;;;;;;;;;481231;28;1058;-73
2024/01/14 01:01:26;;;;;;;17.57;12.50;;;;;;;;;;480506;28;1349;-73
2024/01/14 01:01:42;;;;;;;16.35;11.75;;;;;;;;;;480112;28;932;-73
2024/01/14 01:01:57;;;;;;;16.80;11.97;;;;;;;;;;481254;28;1110;-73
2024/01/14 01:02:13;;;;;;;17.05;12.25;;;;;;;;;;479208;28;1172;-73
2024/01/14 01:02:28;;;;;;;16.20;12.00;;;;;;;;;;480505;28;1357;-73
2024/01/14 01:02:44;;;;;;;15.85;12.05;;;;;;;;;;477171;28;1337;-73
2024/01/14 01:02:59;;;;;;;16.07;12.20;;;;;;;;;;479290;28;1070;-71
2024/01/14 01:03:15;;;;;;;16.00;12.05;;;;;;;;;;479356;28;969;-73
2024/01/14 01:03:30;;;;;;;15.57;11.93;;;;;;;;;;480792;28;1122;-73
2024/01/14 01:03:45;;;;;;;15.87;11.97;;;;;;;;;;479211;28;1135;-74
2024/01/14 01:04:01;;;;;;;17.70;12.25;;;;;;;;;;479775;28;1134;-73
2024/01/14 01:04:16;;;;;;;18.15;12.70;;;;;;;;;;481232;28;1194;-73
2024/01/14 01:04:32;;;;;;;17.33;12.63;;;;;;;;;;480706;28;996;-73
2024/01/14 01:04:47;;;;;;;17.17;12.30;;;;;;;;;;481469;28;1190;-74
2024/01/14 01:05:03;;;;;;;17.38;12.02;;;;;;;;;;481657;28;1093;-74
2024/01/14 01:05:19;;;;;;;16.70;11.85;;;;;;;;;;481157;28;1311;-73
2024/01/14 01:05:34;;;;;;;15.68;12.00;;;;;;;;;;480324;28;1275;-73
2024/01/14 01:05:50;;;;;;;16.97;12.47;;;;;;;;;;480290;28;1012;-74
2024/01/14 01:06:07;;;;;;;17.60;12.43;;;;;;;;;;480793;28;1471;-73
2024/01/14 01:06:22;;;;;;;16.73;12.15;;;;;;;;;;481711;28;1975;-74
2024/01/14 01:06:37;;;;;;;16.92;12.25;;;;;;;;;;480859;28;1317;-73
2024/01/14 01:06:53;;;;;;;17.03;12.27;;;;;;;;;;481799;28;1280;-73
2024/01/14 01:07:08;;;;;;;16.50;12.00;;;;;;;;;;482082;28;1230;-73
2024/01/14 01:07:24;;;;;;;16.63;12.10;;;;;;;;;;483350;28;1359;-74
2024/01/14 01:07:39;;;;;;;17.10;12.38;;;;;;;;;;482556;28;1226;-73
2024/01/14 01:07:55;;;;;;;17.27;12.17;;;;;;;;;;479389;28;1231;-73
2024/01/14 01:08:10;;;;;;;16.90;12.15;;;;;;;;;;477324;28;1463;-73
2024/01/14 01:08:26;;;;;;;16.27;12.37;;;;;;;;;;480488;28;1035;-74
2024/01/14 01:08:41;;;;;;;16.30;12.10;;;;;;;;;;480345;28;1045;-73
2024/01/14 01:08:57;;;;;;;15.40;11.70;;;;;;;;;;480480;28;1123;-74
2024/01/14 01:09:12;;;;;;;16.13;12.15;;;;;;;;;;478598;28;1721;-73
2024/01/14 01:09:28;;;;;;;16.50;12.17;;;;;;;;;;479460;28;883;-72
2024/01/14 01:09:43;;;;;;;16.38;12.18;;;;;;;;;;478774;28;1054;-70
2024/01/14 01:09:59;;;;;;;16.50;12.30;;;;;;;;;;480756;28;1141;-70
2024/01/14 01:10:14;;;;;;;16.13;12.40;;;;;;;;;;479372;28;1520;-73
2024/01/14 01:10:30;;;;;;;16.17;12.70;;;;;;;;;;480245;28;1336;-73
2024/01/14 01:10:46;;;;;;;17.10;12.13;;;;;;;;;;476662;29;1355;-73
2024/01/14 01:11:02;;;;;;;16.75;11.60;;;;;;;;;;474890;28;1347;-73
2024/01/14 01:11:17;;;;;;;16.02;11.85;;;;;;;;;;478923;28;970;-73
2024/01/14 01:11:33;;;;;;;17.20;12.03;;;;;;;;;;478844;28;1505;-73
2024/01/14 01:11:48;;;;;;;16.70;11.75;;;;;;;;;;477934;28;1037;-73
2024/01/14 01:12:04;;;;;;;15.97;11.83;;;;;;;;;;475455;28;1265;-73
2024/01/14 01:12:20;;;;;;;16.20;12.00;;;;;;;;;;478522;28;1521;-73
2024/01/14 01:12:35;;;;;;;15.80;11.90;;;;;;;;;;477829;28;1221;-74
2024/01/14 01:12:51;;;;;;;15.70;11.87;;;;;;;;;;477461;28;1288;-74
2024/01/14 01:13:06;;;;;;;16.23;12.13;;;;;;;;;;477629;28;1363;-73
2024/01/14 01:13:22;;;;;;;16.17;11.83;;;;;;;;;;480045;28;993;-73
2024/01/14 01:13:37;;;;;;;15.75;11.73;;;;;;;;;;479502;28;1034;-73
2024/01/14 01:13:52;;;;;;;15.80;12.10;;;;;;;;;;477625;28;1153;-73
2024/01/14 01:14:08;;;;;;;15.50;11.82;;;;;;;;;;477225;28;1036;-73
2024/01/14 01:14:23;;;;;;;15.57;11.67;;;;;;;;;;482153;28;1162;-73
2024/01/14 01:14:39;;;;;;;16.15;11.73;;;;;;;;;;481801;28;1116;-74
2024/01/14 01:14:54;;;;;;;15.97;11.63;;;;;;;;;;482284;28;913;-74
2024/01/14 01:15:10;;;;;;;15.70;11.75;;;;;;;;;;482540;28;1147;-73
2024/01/14 01:15:25;;;;;;;15.47;11.40;;;;;;;;;;484409;28;1212;-73
2024/01/14 01:15:41;;;;;;;15.07;11.30;;;;;;;;;;482237;28;1040;-73
2024/01/14 01:15:56;;;;;;;16.25;11.77;;;;;;;;;;481643;28;1232;-73
2024/01/14 01:16:11;;;;;;;16.67;12.10;;;;;;;;;;482181;28;943;-73
2024/01/14 01:16:27;;;;;;;16.45;12.02;;;;;;;;;;482006;28;1221;-73
2024/01/14 01:16:42;;;;;;;16.37;12.10;;;;;;;;;;481142;28;1290;-73
2024/01/14 01:16:58;;;;;;;15.77;12.15;;;;;;;;;;480790;28;982;-74
2024/01/14 01:17:14;;;;;;;15.82;11.80;;;;;;;;;;478778;28;1044;-74
2024/01/14 01:17:29;;;;;;;16.07;11.63;;;;;;;;;;479854;28;1046;-73
2024/01/14 01:17:44;;;;;;;16.38;11.95;;;;;;;;;;479244;28;1253;-73
2024/01/14 01:18:00;;;;;;;16.07;11.87;;;;;;;;;;480274;28;1136;-73
2024/01/14 01:18:15;;;;;;;16.15;11.75;;;;;;;;;;480780;28;1225;-73
2024/01/14 01:18:31;;;;;;;17.17;12.30;;;;;;;;;;480277;28;1003;-73
2024/01/14 01:18:47;;;;;;;17.27;12.20;;;;;;;;;;479813;28;1402;-73
2024/01/14 01:19:02;;;;;;;17.10;12.40;;;;;;;;;;480006;28;1106;-73
2024/01/14 01:19:17;;;;;;;16.55;12.52;;;;;;;;;;479804;28;1091;-73
2024/01/14 01:19:33;;;;;;;16.37;12.43;;;;;;;;;;480224;28;1032;-73
2024/01/14 01:19:48;;;;;;;16.35;12.45;;;;;;;;;;479494;28;1301;-73
2024/01/14 01:20:05;;;;;;;16.43;11.73;;;;;;;;;;480010;28;1146;-73
2024/01/14 01:20:20;;;;;;;16.65;11.48;;;;;;;;;;480744;28;1308;-73
2024/01/14 01:20:36;;;;;;;16.17;11.80;;;;;;;;;;480798;28;1193;-74
2024/01/14 01:20:51;;;;;;;15.38;11.73;;;;;;;;;;479762;28;1245;-72
2024/01/14 01:21:07;;;;;;;14.93;11.33;;;;;;;;;;478626;28;1343;-74
2024/01/14 01:21:22;;;;;;;15.18;11.43;;;;;;;;;;477684;29;1424;-73
2024/01/14 01:21:38;;;;;;;14.87;11.23;;;;;;;;;;475732;29;1068;-73
2024/01/14 01:21:53;;;;;;;15.05;11.20;;;;;;;;;;476042;29;1060;-73
2024/01/14 01:22:09;;;;;;;15.10;11.50;;;;;;;;;;476092;29;1199;-73
2024/01/14 01:22:24;;;;;;;15.77;11.60;;;;;;;;;;476327;29;1179;-73
2024/01/14 01:22:40;;;;;;;16.47;11.93;;;;;;;;;;476789;28;929;-73
2024/01/14 01:22:55;;;;;;;16.35;12.05;;;;;;;;;;477683;28;1145;-73
2024/01/14 01:23:11;;;;;;;16.37;12.07;;;;;;;;;;476661;28;1184;-74
2024/01/14 01:23:26;;;;;;;15.98;11.73;;;;;;;;;;478037;28;1381;-73
2024/01/14 01:23:42;;;;;;;15.73;11.43;;;;;;;;;;478953;28;902;-73
2024/01/14 01:23:58;;;;;;;16.08;11.73;;;;;;;;;;477383;28;1402;-73
2024/01/14 01:24:14;;;;;;;16.52;11.80;;;;;;;;;;477756;28;1109;-74
2024/01/14 01:24:30;;;;;;;16.20;11.65;;;;;;;;;;477907;28;943;-73
2024/01/14 01:24:45;;;;;;;15.50;11.63;;;;;;;;;;476979;28;1341;-73
2024/01/14 01:25:01;;;;;;;16.60;12.00;;;;;;;;;;477940;28;1091;-73
2024/01/14 01:25:16;;;;;;;16.55;12.02;;;;;;;;;;479566;28;1095;-73
2024/01/14 01:25:32;;;;;;;16.08;11.93;;;;;;;;;;477998;28;952;-74
2024/01/14 01:25:47;;;;;;;15.97;11.77;;;;;;;;;;478723;28;1192;-73
2024/01/14 01:26:03;;;;;;;16.05;11.55;;;;;;;;;;480675;28;961;-73
2024/01/14 01:26:18;;;;;;;16.17;11.63;;;;;;;;;;478352;28;1259;-74
2024/01/14 01:26:34;;;;;;;16.43;12.00;;;;;;;;;;478070;28;2023;-74
2024/01/14 01:26:49;;;;;;;16.17;11.87;;;;;;;;;;480228;28;987;-73
2024/01/14 01:27:05;;;;;;;15.43;11.77;;;;;;;;;;480202;28;1066;-73
2024/01/14 01:27:21;;;;;;;16.27;12.27;;;;;;;;;;480323;28;975;-74
2024/01/14 01:27:36;;;;;;;16.97;12.17;;;;;;;;;;478688;28;1193;-73
2024/01/14 01:27:52;;;;;;;16.10;11.75;;;;;;;;;;475779;29;1281;-74
2024/01/14 01:28:09;;;;;;;15.10;11.57;;;;;;;;;;476506;28;1226;-73
2024/01/14 01:28:25;;;;;;;15.57;11.75;;;;;;;;;;478149;28;1024;-74
2024/01/14 01:28:40;;;;;;;15.87;11.73;;;;;;;;;;476607;28;1261;-73
2024/01/14 01:28:55;;;;;;;15.37;11.60;;;;;;;;;;477049;28;1091;-73
2024/01/14 01:29:11;;;;;;;15.27;11.60;;;;;;;;;;477387;28;984;-72
2024/01/14 01:29:26;;;;;;;15.33;11.20;;;;;;;;;;478751;28;1214;-73
2024/01/14 01:29:42;;;;;;;14.88;11.02;;;;;;;;;;478015;28;1158;-77
2024/01/14 01:29:58;;;;;;;14.95;11.35;;;;;;;;;;479984;28;993;-73
2024/01/14 01:30:14;;;;;;;16.15;11.95;;;;;;;;;;477747;28;1241;-72
2024/01/14 01:30:29;;;;;;;15.65;11.77;;;;;;;;;;478480;28;1043;-72
2024/01/14 01:30:45;;;;;;;15.73;11.90;;;;;;;;;;477900;28;1185;-73
2024/01/14 01:31:01;;;;;;;15.73;11.70;;;;;;;;;;477485;28;1221;-74
2024/01/14 01:31:16;;;;;;;15.83;11.63;;;;;;;;;;478328;28;985;-73
2024/01/14 01:31:31;;;;;;;15.90;11.95;;;;;;;;;;478784;28;1086;-73
2024/01/14 01:31:47;;;;;;;17.00;11.83;;;;;;;;;;478209;28;1079;-73
2024/01/14 01:32:02;;;;;;;16.80;11.27;;;;;;;;;;478507;28;1134;-72
2024/01/14 01:32:18;;;;;;;14.77;11.07;;;;;;;;;;480427;28;948;-72
2024/01/14 01:32:33;;;;;;;15.40;11.73;;;;;;;;;;480509;28;910;-73
2024/01/14 01:32:49;;;;;;;16.63;11.87;;;;;;;;;;481737;28;1245;-73
2024/01/14 01:33:04;;;;;;;17.20;11.93;;;;;;;;;;480277;28;926;-73
2024/01/14 01:33:20;;;;;;;15.77;12.03;;;;;;;;;;480506;28;1181;-73
2024/01/14 01:33:35;;;;;;;14.90;11.63;;;;;;;;;;481637;28;1147;-73
2024/01/14 01:33:51;;;;;;;14.57;11.33;;;;;;;;;;481391;28;1133;-74
2024/01/14 01:34:06;;;;;;;14.53;11.30;;;;;;;;;;482127;28;956;-73